Time;durP1;ratioP1;P1;durP2;ratioP2;P2;SDS_P1;SDS_P2;PMS_P1;PMS_P2;Temp;Humidity;BMP_temperature;BMP_pressure;BME280_temperature;BME280_humidity;BME280_pressure;Samples;Min_cycle;Max_cycle;Signal;HPM_P1;HPM_P2
2022/04/13 00:02:06;;;;;;;14.70;8.07;;;10.30;99.90;;;;;;6220831;23;20004;-90
2022/04/13 00:04:32;;;;;;;17.10;8.88;;;10.30;99.90;;;;;;6220925;23;20019;-91
2022/04/13 00:06:58;;;;;;;19.90;7.97;;;10.30;99.90;;;;;;6220198;23;20019;-91
2022/04/13 00:09:25;;;;;;;15.43;7.63;;;10.30;99.90;;;;;;6220699;23;20004;-91
2022/04/13 00:11:52;;;;;;;17.40;9.00;;;10.40;99.90;;;;;;6220614;23;20338;-92
2022/04/13 00:14:22;;;;;;;20.38;9.55;;;10.40;99.90;;;;;;6220358;23;20008;-90
2022/04/13 00:16:48;;;;;;;17.48;9.13;;;10.40;99.90;;;;;;6224054;23;20019;-90
2022/04/13 00:19:14;;;;;;;9.70;7.13;;;10.40;99.90;;;;;;6230673;23;20081;-91
2022/04/13 00:21:40;;;;;;;14.75;8.15;;;10.50;99.90;;;;;;6228503;23;20030;-90
2022/04/13 00:24:06;;;;;;;13.43;7.53;;;10.50;99.90;;;;;;6219816;23;20027;-91
2022/04/13 00:26:32;;;;;;;12.52;7.20;;;10.50;99.90;;;;;;6219665;23;20000;-91
2022/04/13 00:28:59;;;;;;;11.20;7.07;;;10.50;99.90;;;;;;6220589;23;20058;-91
2022/04/13 00:31:24;;;;;;;13.98;6.55;;;10.50;99.90;;;;;;6221505;23;20000;-90
2022/04/13 00:33:50;;;;;;;10.18;6.15;;;10.50;99.90;;;;;;6222330;23;20011;-89
2022/04/13 00:36:15;;;;;;;11.32;5.95;;;10.50;99.90;;;;;;6222568;23;20008;-91
2022/04/13 00:38:41;;;;;;;14.15;6.47;;;10.50;99.90;;;;;;6221542;23;20430;-91
2022/04/13 00:41:07;;;;;;;11.15;5.95;;;10.50;99.90;;;;;;6222168;23;20008;-90
2022/04/13 00:43:33;;;;;;;10.45;5.78;;;10.60;99.90;;;;;;6222116;23;20007;-90
2022/04/13 00:45:58;;;;;;;9.40;5.25;;;10.60;99.90;;;;;;6221957;23;20015;-91
2022/04/13 00:48:30;;;;;;;9.63;4.82;;;10.50;99.90;;;;;;6221835;23;20450;-90
2022/04/13 00:50:55;;;;;;;7.00;4.95;;;10.50;99.90;;;;;;6221853;23;20034;-91
2022/04/13 00:53:23;;;;;;;10.05;5.82;;;10.50;99.90;;;;;;6224072;23;20011;-90
2022/04/13 00:55:54;;;;;;;10.82;4.93;;;10.50;99.90;;;;;;6224445;23;20061;-89
2022/04/13 00:58:24;;;;;;;10.75;5.63;;;10.50;99.90;;;;;;6222504;23;20008;-90
2022/04/13 01:00:51;;;;;;;10.10;5.15;;;10.50;99.90;;;;;;6221185;23;20058;-90
2022/04/13 01:03:22;;;;;;;9.90;5.00;;;10.50;99.90;;;;;;6221580;23;20036;-90
2022/04/13 01:05:49;;;;;;;10.13;4.65;;;10.50;99.90;;;;;;6221544;23;20011;-89
2022/04/13 01:08:17;;;;;;;8.05;5.18;;;10.50;99.90;;;;;;6221238;23;20020;-90
2022/04/13 01:10:44;;;;;;;8.13;5.30;;;10.50;99.90;;;;;;6221420;23;20033;-91
2022/04/13 01:13:11;;;;;;;9.68;4.70;;;10.50;99.90;;;;;;6221423;23;20046;-91
2022/04/13 01:15:37;;;;;;;6.72;4.35;;;10.40;99.90;;;;;;6220595;23;20012;-90
2022/04/13 01:18:04;;;;;;;8.38;5.30;;;10.40;99.90;;;;;;6221309;23;20004;-91
2022/04/13 01:20:29;;;;;;;12.50;5.63;;;10.40;99.90;;;;;;6221000;23;20054;-90
2022/04/13 01:22:55;;;;;;;14.13;5.68;;;10.40;99.90;;;;;;6221406;23;20008;-91
2022/04/13 01:25:21;;;;;;;9.63;5.05;;;10.30;99.90;;;;;;6221542;23;20027;-90
2022/04/13 01:27:47;;;;;;;9.00;5.68;;;10.30;99.90;;;;;;6221864;23;20012;-90
2022/04/13 01:30:13;;;;;;;10.98;5.45;;;10.30;99.90;;;;;;6227441;23;20001;-91
2022/04/13 01:32:39;;;;;;;10.70;5.13;;;10.30;99.90;;;;;;6226119;23;20030;-91
2022/04/13 01:35:06;;;;;;;8.50;4.32;;;10.20;99.90;;;;;;6230944;23;20117;-91
2022/04/13 01:37:33;;;;;;;9.75;5.70;;;10.20;99.90;;;;;;6238434;23;20008;-91
2022/04/13 01:39:58;;;;;;;7.82;5.85;;;10.20;99.90;;;;;;6226646;23;20004;-91
2022/04/13 01:42:24;;;;;;;8.07;5.35;;;10.20;99.90;;;;;;6223578;23;20073;-91
2022/04/13 01:44:50;;;;;;;8.55;4.70;;;10.20;99.90;;;;;;6221598;23;20004;-91
2022/04/13 01:47:15;;;;;;;9.18;5.28;;;10.20;99.90;;;;;;6221786;23;20012;-90
2022/04/13 01:49:42;;;;;;;5.88;3.70;;;10.10;99.90;;;;;;6221792;23;20346;-90
2022/04/13 01:52:09;;;;;;;11.85;5.82;;;10.10;99.90;;;;;;6221879;23;20008;-90
2022/04/13 01:54:36;;;;;;;8.13;4.35;;;10.10;99.90;;;;;;6221822;23;20012;-92
2022/04/13 01:57:02;;;;;;;10.02;6.60;;;10.10;99.90;;;;;;6221195;23;20012;-89
2022/04/13 01:59:28;;;;;;;12.63;4.88;;;10.10;99.90;;;;;;6221575;23;20000;-90
2022/04/13 02:01:54;;;;;;;10.00;4.53;;;10.10;99.90;;;;;;6221222;23;20004;-90
2022/04/13 02:04:21;;;;;;;6.80;3.55;;;10.10;99.90;;;;;;6221309;23;20008;-91
2022/04/13 02:06:47;;;;;;;10.68;5.75;;;10.10;99.90;;;;;;6219913;23;20039;-91
2022/04/13 02:09:14;;;;;;;14.32;6.78;;;10.10;99.90;;;;;;6220369;23;20004;-91
2022/04/13 02:11:40;;;;;;;6.13;3.97;;;10.10;99.90;;;;;;6220704;23;20000;-89
2022/04/13 02:14:06;;;;;;;11.25;5.55;;;10.10;99.90;;;;;;6220757;23;20020;-89
2022/04/13 02:16:32;;;;;;;11.35;6.40;;;10.10;99.90;;;;;;6221003;23;20000;-89
2022/04/13 02:18:57;;;;;;;11.90;7.22;;;10.10;99.90;;;;;;6221032;23;20005;-88
2022/04/13 02:21:23;;;;;;;14.18;5.63;;;10.10;99.90;;;;;;6221020;23;20004;-92
2022/04/13 02:23:49;;;;;;;7.72;4.47;;;10.10;99.90;;;;;;6220876;23;20457;-90
2022/04/13 02:26:15;;;;;;;16.33;7.07;;;10.20;99.90;;;;;;6220635;23;20015;-90
2022/04/13 02:28:42;;;;;;;17.73;7.70;;;10.10;99.90;;;;;;6220342;23;20012;-89
2022/04/13 02:31:08;;;;;;;10.43;6.47;;;10.20;99.90;;;;;;6220669;23;20030;-90
2022/04/13 02:33:33;;;;;;;9.82;5.90;;;10.20;99.90;;;;;;6220701;23;20008;-90
2022/04/13 02:35:59;;;;;;;12.48;5.68;;;10.20;99.90;;;;;;6220956;23;20007;-90
2022/04/13 02:38:25;;;;;;;12.77;5.20;;;10.20;99.90;;;;;;6221576;23;20008;-90
2022/04/13 02:40:51;;;;;;;11.52;5.63;;;10.20;99.90;;;;;;6226230;23;20008;-90
2022/04/13 02:43:17;;;;;;;12.02;6.05;;;10.20;99.90;;;;;;6221294;23;20039;-90
2022/04/13 02:45:42;;;;;;;14.88;7.05;;;10.20;99.90;;;;;;6220111;23;20000;-91
2022/04/13 02:48:08;;;;;;;11.07;6.40;;;10.20;99.90;;;;;;6220051;23;20020;-91
2022/04/13 02:50:34;;;;;;;9.30;4.60;;;10.20;99.90;;;;;;6220315;23;20034;-90
2022/04/13 02:53:00;;;;;;;9.93;6.25;;;10.20;99.90;;;;;;6220088;23;20032;-89
2022/04/13 02:55:26;;;;;;;15.43;7.32;;;10.20;99.90;;;;;;6220200;23;20024;-91
2022/04/13 02:57:52;;;;;;;6.75;4.30;;;10.20;99.90;;;;;;6220075;23;20027;-91
2022/04/13 03:00:18;;;;;;;9.70;5.28;;;10.20;99.90;;;;;;6219305;23;20061;-90
2022/04/13 03:02:44;;;;;;;11.80;5.60;;;10.10;99.90;;;;;;6220101;23;20008;-91
2022/04/13 03:05:10;;;;;;;13.35;7.05;;;10.10;99.90;;;;;;6223584;23;20011;-90
2022/04/13 03:07:37;;;;;;;17.52;6.95;;;10.20;99.90;;;;;;6226816;23;20462;-91
2022/04/13 03:10:06;;;;;;;14.50;7.13;;;10.10;99.90;;;;;;6220612;23;20038;-90
2022/04/13 03:12:36;;;;;;;11.52;6.72;;;10.20;99.90;;;;;;6219782;23;20004;-91
2022/04/13 03:15:05;;;;;;;11.35;5.03;;;10.20;99.90;;;;;;6219983;23;20095;-92
2022/04/13 03:17:32;;;;;;;8.65;4.28;;;10.20;99.90;;;;;;6220620;23;20316;-91
2022/04/13 03:19:57;;;;;;;14.95;6.80;;;10.20;99.90;;;;;;6220188;23;20057;-90
2022/04/13 03:22:24;;;;;;;10.88;5.47;;;10.20;99.90;;;;;;6220047;23;20000;-92
2022/04/13 03:24:51;;;;;;;9.65;4.47;;;10.20;99.90;;;;;;6220196;23;20458;-91
2022/04/13 03:27:17;;;;;;;9.00;5.72;;;10.20;99.90;;;;;;6220217;23;20451;-91
2022/04/13 03:29:43;;;;;;;13.02;6.55;;;10.20;99.90;;;;;;6220547;23;20134;-91
2022/04/13 03:32:08;;;;;;;14.15;5.57;;;10.20;99.90;;;;;;6220632;23;20434;-91
2022/04/13 03:34:35;;;;;;;15.30;8.63;;;10.30;99.90;;;;;;6220083;23;20000;-91
2022/04/13 03:37:02;;;;;;;9.40;4.43;;;10.30;99.90;;;;;;6220374;23;20004;-90
2022/04/13 03:39:28;;;;;;;9.63;5.60;;;10.30;99.90;;;;;;6220069;23;20008;-90
2022/04/13 03:41:54;;;;;;;12.77;7.32;;;10.30;99.90;;;;;;6219545;23;20034;-91
2022/04/13 03:44:20;;;;;;;10.30;5.35;;;10.30;99.90;;;;;;6220168;23;20039;-91
2022/04/13 03:46:47;;;;;;;10.95;5.93;;;10.30;99.90;;;;;;6219583;23;20066;-89
2022/04/13 03:49:12;;;;;;;11.98;5.85;;;10.30;99.90;;;;;;6219620;23;20043;-91
2022/04/13 03:51:38;;;;;;;8.70;5.00;;;10.30;99.90;;;;;;6219701;23;20000;-92
2022/04/13 03:54:04;;;;;;;12.32;5.60;;;10.30;99.90;;;;;;6219805;23;20012;-90
2022/04/13 03:56:30;;;;;;;11.00;6.63;;;10.30;99.90;;;;;;6219769;23;20343;-91
2022/04/13 03:58:59;;;;;;;9.05;5.95;;;10.30;99.90;;;;;;6219437;23;20008;-91
2022/04/13 04:01:25;;;;;;;10.68;5.53;;;10.20;99.90;;;;;;6220306;23;20007;-90
2022/04/13 04:03:51;;;;;;;8.05;5.18;;;10.20;99.90;;;;;;6227909;23;20007;-90
2022/04/13 04:06:17;;;;;;;11.48;6.47;;;10.20;99.90;;;;;;6227337;23;20008;-90
2022/04/13 04:08:43;;;;;;;10.05;5.38;;;10.20;99.90;;;;;;6222094;23;20023;-91
2022/04/13 04:11:08;;;;;;;9.13;3.78;;;10.20;99.90;;;;;;6221791;23;20005;-91
2022/04/13 04:13:34;;;;;;;10.00;4.00;;;10.10;99.90;;;;;;6221497;23;20012;-90
2022/04/13 04:16:00;;;;;;;11.43;6.25;;;10.10;99.90;;;;;;6221215;23;20016;-92
2022/04/13 04:18:26;;;;;;;15.10;8.15;;;10.10;99.90;;;;;;6221648;23;20015;-90
2022/04/13 04:20:52;;;;;;;14.30;6.70;;;10.10;99.90;;;;;;6221718;23;20062;-91
2022/04/13 04:23:18;;;;;;;15.05;7.82;;;10.10;99.90;;;;;;6221906;23;20408;-90
2022/04/13 04:25:44;;;;;;;11.32;7.68;;;10.10;99.90;;;;;;6223685;23;20008;-90
2022/04/13 04:28:10;;;;;;;14.10;6.88;;;10.10;99.90;;;;;;6225114;23;20044;-91
2022/04/13 04:30:37;;;;;;;10.48;4.88;;;10.10;99.90;;;;;;6221899;23;20035;-91
2022/04/13 04:33:04;;;;;;;14.32;8.23;;;10.10;99.90;;;;;;6221516;23;20004;-91
2022/04/13 04:35:30;;;;;;;15.80;7.47;;;10.00;99.90;;;;;;6221760;23;20467;-92
2022/04/13 04:37:56;;;;;;;14.07;8.02;;;10.00;99.90;;;;;;6222570;23;20008;-90
2022/04/13 04:40:21;;;;;;;12.23;6.22;;;10.00;99.90;;;;;;6221900;23;20004;-89
2022/04/13 04:42:49;;;;;;;13.57;7.65;;;10.00;99.90;;;;;;6223138;23;20106;-89
2022/04/13 04:45:22;;;;;;;16.17;7.95;;;10.00;99.90;;;;;;6222629;23;20008;-92
2022/04/13 04:47:49;;;;;;;12.95;7.80;;;10.00;99.90;;;;;;6220318;23;20012;-92
2022/04/13 04:50:20;;;;;;;9.10;5.70;;;10.00;99.90;;;;;;6220349;23;20004;-92
2022/04/13 04:52:46;;;;;;;13.15;7.32;;;10.00;99.90;;;;;;6220234;23;20086;-92
2022/04/13 04:55:14;;;;;;;13.48;7.10;;;10.00;99.90;;;;;;6220388;23;20004;-91
2022/04/13 04:57:40;;;;;;;16.10;8.25;;;10.00;99.90;;;;;;6220202;23;20004;-92
2022/04/13 05:00:12;;;;;;;10.38;5.40;;;10.00;99.90;;;;;;6219914;23;20003;-91
2022/04/13 05:02:38;;;;;;;12.18;7.80;;;10.00;99.90;;;;;;6222724;23;20031;-92
2022/04/13 05:05:05;;;;;;;16.25;8.43;;;10.00;99.90;;;;;;6225957;23;20028;-90
2022/04/13 05:07:31;;;;;;;12.95;7.57;;;10.00;99.90;;;;;;6245294;23;20020;-90
2022/04/13 05:09:58;;;;;;;16.48;8.95;;;10.00;99.90;;;;;;6246928;23;20020;-90
2022/04/13 05:12:24;;;;;;;15.02;9.25;;;10.00;99.90;;;;;;6233229;23;19996;-91
2022/04/13 05:14:52;;;;;;;13.38;9.20;;;10.00;99.90;;;;;;6226256;23;20048;-91
2022/04/13 05:17:18;;;;;;;14.82;9.02;;;10.00;99.90;;;;;;6224892;23;20099;-92
2022/04/13 05:19:44;;;;;;;8.73;5.20;;;10.00;99.90;;;;;;6224633;23;20007;-90
2022/04/13 05:22:10;;;;;;;11.35;7.13;;;10.00;99.90;;;;;;6223106;23;20084;-91
2022/04/13 05:24:35;;;;;;;12.10;5.63;;;10.00;99.90;;;;;;6222958;23;20457;-92
2022/04/13 05:27:01;;;;;;;15.43;7.18;;;10.00;99.90;;;;;;6222224;23;20004;-92
2022/04/13 05:29:27;;;;;;;9.70;5.45;;;10.10;99.90;;;;;;6222472;23;20008;-90
2022/04/13 05:31:52;;;;;;;7.72;6.22;;;10.10;99.90;;;;;;6221902;23;20083;-91
2022/04/13 05:34:18;;;;;;;17.65;7.88;;;10.00;99.90;;;;;;6221552;23;20008;-91
2022/04/13 05:36:43;;;;;;;8.27;5.22;;;10.10;99.90;;;;;;6221862;23;20004;-92
2022/04/13 05:39:09;;;;;;;16.83;9.18;;;10.10;99.90;;;;;;6222031;23;20466;-91
2022/04/13 05:41:35;;;;;;;10.90;5.68;;;10.10;99.90;;;;;;6222550;23;20008;-91
2022/04/13 05:44:01;;;;;;;14.43;8.15;;;10.10;99.90;;;;;;6222510;23;20008;-92
2022/04/13 05:46:26;;;;;;;6.78;5.35;;;10.10;99.90;;;;;;6221215;23;20026;-93
2022/04/13 05:48:52;;;;;;;14.25;6.97;;;10.10;99.90;;;;;;6221212;23;20022;-92
2022/04/13 05:51:18;;;;;;;16.73;8.93;;;10.20;99.90;;;;;;6221424;23;20054;-94
2022/04/13 05:53:43;;;;;;;10.50;7.95;;;10.10;99.90;;;;;;6221473;23;20035;-92
2022/04/13 05:56:09;;;;;;;10.30;6.80;;;10.20;99.90;;;;;;6227913;23;20059;-94
2022/04/13 05:58:35;;;;;;;13.68;7.50;;;10.20;99.90;;;;;;6235622;23;20041;-93
2022/04/13 06:01:01;;;;;;;17.15;8.15;;;10.20;99.90;;;;;;6231849;23;20008;-92
2022/04/13 06:03:26;;;;;;;14.10;7.97;;;10.20;99.90;;;;;;6222647;23;20019;-92
2022/04/13 06:05:52;;;;;;;12.60;7.25;;;10.20;99.90;;;;;;6222125;23;20007;-92
2022/04/13 06:08:18;;;;;;;16.60;6.85;;;10.30;99.90;;;;;;6222625;23;20077;-95
2022/04/13 06:10:44;;;;;;;10.95;7.57;;;10.30;99.90;;;;;;6222414;23;20008;-94
2022/04/13 06:13:10;;;;;;;19.58;8.93;;;10.30;99.90;;;;;;6229297;23;20455;-93
2022/04/13 06:15:36;;;;;;;15.73;8.55;;;10.30;99.90;;;;;;6228247;23;20043;-92
2022/04/13 06:18:02;;;;;;;14.27;8.32;;;10.30;99.90;;;;;;6249119;23;20091;-92
2022/04/13 06:20:28;;;;;;;16.58;9.43;;;10.30;99.90;;;;;;6250352;23;20071;-91
2022/04/13 06:22:54;;;;;;;18.98;8.20;;;10.40;99.90;;;;;;6219672;23;20035;-92
2022/04/13 06:25:20;;;;;;;14.20;8.05;;;10.40;99.90;;;;;;6219734;23;20005;-91
2022/04/13 06:27:46;;;;;;;11.93;6.38;;;10.40;99.90;;;;;;6219226;23;20008;-91
2022/04/13 06:30:13;;;;;;;9.68;7.10;;;10.40;99.90;;;;;;6245417;23;20412;-92
2022/04/13 06:32:44;;;;;;;16.75;7.78;;;10.40;99.90;;;;;;6220813;23;20000;-91
2022/04/13 06:35:16;;;;;;;10.38;6.88;;;10.50;99.90;;;;;;6220323;23;20034;-92
2022/04/13 06:37:44;;;;;;;14.65;6.82;;;10.50;99.90;;;;;;6220099;23;20011;-92
2022/04/13 06:40:10;;;;;;;13.60;7.57;;;10.50;99.90;;;;;;6219285;23;20031;-91
2022/04/13 06:42:37;;;;;;;13.25;6.95;;;10.50;99.90;;;;;;6220421;23;20023;-90
2022/04/13 06:45:07;;;;;;;16.02;7.85;;;10.50;99.90;;;;;;6220455;23;20004;-91
2022/04/13 06:47:33;;;;;;;9.10;6.15;;;10.60;99.90;;;;;;6226072;23;20012;-90
2022/04/13 06:49:58;;;;;;;9.38;6.25;;;10.60;99.90;;;;;;6228255;23;20007;-91
2022/04/13 06:52:24;;;;;;;8.98;6.28;;;10.60;99.90;;;;;;6223015;23;20223;-91
2022/04/13 06:54:50;;;;;;;10.80;5.82;;;10.60;99.90;;;;;;6221379;23;20007;-92
2022/04/13 06:57:16;;;;;;;9.88;6.28;;;10.60;99.90;;;;;;6221201;23;20019;-94
2022/04/13 06:59:41;;;;;;;10.25;5.95;;;10.60;99.90;;;;;;6221980;23;20083;-92
2022/04/13 07:02:10;;;;;;;9.90;4.95;;;10.60;99.90;;;;;;6220333;23;20030;-92
2022/04/13 07:04:37;;;;;;;11.95;5.63;;;10.60;99.90;;;;;;6221512;23;20059;-93
2022/04/13 07:07:03;;;;;;;9.05;5.18;;;10.60;99.90;;;;;;6221246;23;20084;-93
2022/04/13 07:09:29;;;;;;;8.45;5.45;;;10.60;99.90;;;;;;6217673;23;20055;-93
2022/04/13 07:11:55;;;;;;;8.15;5.07;;;10.60;99.90;;;;;;6219708;23;20435;-92
2022/04/13 07:14:20;;;;;;;10.73;6.05;;;10.60;99.90;;;;;;6219710;23;20102;-92
2022/04/13 07:16:46;;;;;;;14.98;6.78;;;10.60;99.90;;;;;;6216461;23;20004;-91
2022/04/13 07:19:12;;;;;;;9.75;6.00;;;10.60;99.90;;;;;;6217363;23;20083;-92
2022/04/13 07:21:37;;;;;;;11.52;5.72;;;10.60;99.90;;;;;;6245403;23;20075;-91
2022/04/13 07:24:04;;;;;;;9.13;5.28;;;10.60;99.90;;;;;;6219213;23;20000;-93
2022/04/13 07:26:29;;;;;;;9.68;5.88;;;10.60;99.90;;;;;;6218690;23;20008;-92
2022/04/13 07:28:55;;;;;;;10.80;5.85;;;10.60;99.90;;;;;;6220397;23;20079;-93
2022/04/13 07:31:21;;;;;;;9.48;5.57;;;10.60;99.90;;;;;;6221450;23;20067;-92
2022/04/13 07:33:47;;;;;;;10.90;5.30;;;10.70;99.90;;;;;;6227064;23;20008;-93
2022/04/13 07:36:12;;;;;;;12.95;6.25;;;10.70;99.90;;;;;;6226612;23;20008;-93
2022/04/13 07:38:38;;;;;;;8.55;5.20;;;10.60;99.90;;;;;;6226966;23;20305;-92
2022/04/13 07:41:04;;;;;;;8.80;5.35;;;10.70;99.90;;;;;;6221771;23;20439;-91
2022/04/13 07:43:30;;;;;;;20.45;5.93;;;10.70;99.90;;;;;;6219809;23;20066;-91
2022/04/13 07:45:56;;;;;;;12.05;5.68;;;10.70;99.90;;;;;;6220483;23;20011;-91
2022/04/13 07:48:22;;;;;;;9.60;5.40;;;10.80;99.90;;;;;;6219947;23;20009;-92
2022/04/13 07:50:47;;;;;;;10.40;4.65;;;10.80;99.90;;;;;;6221144;23;20087;-91
2022/04/13 07:53:14;;;;;;;26.02;6.60;;;10.80;99.90;;;;;;6220791;23;20320;-93
2022/04/13 07:55:40;;;;;;;11.43;5.35;;;10.80;99.90;;;;;;6220373;23;20008;-91
2022/04/13 07:58:06;;;;;;;26.33;6.50;;;10.80;99.90;;;;;;6225136;23;20027;-91
2022/04/13 08:00:32;;;;;;;12.40;4.78;;;10.90;99.90;;;;;;6231773;23;20004;-91
2022/04/13 08:02:58;;;;;;;7.40;4.35;;;10.90;99.90;;;;;;6230757;23;20004;-92
2022/04/13 08:05:24;;;;;;;15.82;5.50;;;10.90;99.90;;;;;;6219999;23;20149;-91
2022/04/13 08:07:51;;;;;;;9.15;4.40;;;10.90;99.90;;;;;;6220429;23;20347;-92
2022/04/13 08:10:16;;;;;;;9.90;4.88;;;10.90;99.90;;;;;;6219029;23;20023;-92
2022/04/13 08:12:42;;;;;;;14.85;5.05;;;10.90;99.90;;;;;;6219675;23;20431;-91
2022/04/13 08:15:09;;;;;;;13.18;3.55;;;11.00;99.90;;;;;;6218860;23;20384;-92
2022/04/13 08:17:38;;;;;;;7.80;4.13;;;10.90;99.90;;;;;;6219862;23;20036;-93
2022/04/13 08:20:06;;;;;;;8.90;4.53;;;11.00;99.90;;;;;;6219596;23;20008;-91
2022/04/13 08:22:36;;;;;;;21.85;5.15;;;11.00;99.90;;;;;;6247415;23;20092;-93
2022/04/13 08:25:01;;;;;;;8.93;3.92;;;11.00;99.90;;;;;;6218522;23;20040;-92
2022/04/13 08:27:27;;;;;;;5.93;3.30;;;11.10;99.90;;;;;;6220523;23;20074;-92
2022/04/13 08:29:53;;;;;;;7.10;3.30;;;11.10;99.90;;;;;;6219130;23;20031;-94
2022/04/13 08:32:20;;;;;;;4.65;2.92;;;11.10;99.90;;;;;;6219333;23;20032;-92
2022/04/13 08:34:46;;;;;;;5.88;3.42;;;11.20;99.90;;;;;;6219921;23;20012;-92
2022/04/13 08:37:12;;;;;;;9.20;3.88;;;11.20;99.90;;;;;;6224713;23;20035;-93
2022/04/13 08:39:39;;;;;;;5.38;3.13;;;11.20;99.90;;;;;;6221928;23;20000;-93
2022/04/13 08:42:34;;;;;;;6.88;3.80;;;11.20;99.90;;;;;;6225029;23;20012;-93
2022/04/13 08:45:15;;;;;;;10.07;3.90;;;11.20;99.90;;;;;;6223253;23;20004;-94
2022/04/13 08:47:44;;;;;;;5.60;3.60;;;11.20;99.90;;;;;;6221666;23;20008;-93
2022/04/13 08:50:12;;;;;;;8.00;4.00;;;11.10;99.90;;;;;;6220231;23;20050;-94
2022/04/13 08:52:39;;;;;;;5.40;3.75;;;11.20;99.90;;;;;;6220907;23;20092;-93
2022/04/13 08:55:11;;;;;;;8.55;3.90;;;11.20;99.90;;;;;;6222706;23;20012;-92
2022/04/13 08:57:42;;;;;;;6.20;4.03;;;11.30;99.90;;;;;;6221785;23;20004;-93
2022/04/13 09:00:13;;;;;;;5.95;4.35;;;11.30;99.90;;;;;;6220926;23;20008;-92
2022/04/13 09:03:09;;;;;;;8.23;6.07;;;11.40;99.90;;;;;;6230514;23;20072;-94
2022/04/13 09:05:37;;;;;;;9.68;5.72;;;11.60;99.90;;;;;;6225124;23;20008;-94
2022/04/13 09:08:09;;;;;;;7.75;5.65;;;11.90;99.90;;;;;;6222794;23;20024;-93
2022/04/13 09:10:36;;;;;;;6.90;4.90;;;12.10;99.90;;;;;;6222736;23;20012;-91
2022/04/13 09:13:04;;;;;;;8.65;6.30;;;12.30;99.90;;;;;;6224296;23;20008;-92
2022/04/13 09:15:30;;;;;;;9.30;5.40;;;12.40;99.90;;;;;;6221188;23;20016;-91
2022/04/13 09:17:56;;;;;;;9.52;7.43;;;12.50;99.90;;;;;;6220331;23;20004;-90
2022/04/13 09:20:22;;;;;;;9.32;7.60;;;12.50;99.90;;;;;;6221270;23;20004;-91
2022/04/13 09:22:50;;;;;;;11.20;7.50;;;12.60;99.90;;;;;;6220920;23;20000;-91
2022/04/13 09:25:19;;;;;;;10.85;8.35;;;12.50;99.90;;;;;;6221135;23;20004;-91
2022/04/13 09:27:46;;;;;;;13.48;9.10;;;12.50;99.90;;;;;;6220188;23;20012;-90
2022/04/13 09:30:13;;;;;;;11.20;8.88;;;12.50;99.90;;;;;;6219932;23;20016;-90
2022/04/13 09:32:39;;;;;;;10.85;8.02;;;12.50;99.90;;;;;;6223113;23;20044;-90
2022/04/13 09:35:06;;;;;;;9.13;7.38;;;12.60;99.90;;;;;;6224355;23;20406;-90
2022/04/13 09:37:31;;;;;;;10.43;7.65;;;12.60;99.90;;;;;;6223998;23;20055;-89
2022/04/13 09:39:59;;;;;;;9.23;7.53;;;12.60;99.90;;;;;;6224437;23;20011;-91
2022/04/13 09:42:27;;;;;;;9.57;7.20;;;12.60;99.90;;;;;;6223304;23;20000;-90
2022/04/13 09:44:57;;;;;;;8.68;7.13;;;12.70;99.90;;;;;;6222911;23;20012;-89
2022/04/13 09:47:29;;;;;;;8.57;7.03;;;12.90;99.90;;;;;;6227224;23;20022;-93
2022/04/13 09:49:56;;;;;;;9.60;7.65;;;13.00;99.90;;;;;;6231142;23;20008;-92
2022/04/13 09:52:41;;;;;;;11.93;8.82;;;13.10;99.90;;;;;;6222172;23;20010;-90
2022/04/13 09:55:08;;;;;;;9.32;7.47;;;13.10;99.90;;;;;;6220332;23;20004;-90
2022/04/13 09:57:34;;;;;;;8.05;5.85;;;13.30;99.90;;;;;;6220210;23;20012;-92
2022/04/13 10:00:04;;;;;;;9.23;6.22;;;13.50;99.90;;;;;;6221215;23;20004;-90
2022/04/13 10:02:40;;;;;;;8.77;6.40;;;13.70;99.90;;;;;;6219650;23;20578;-91
2022/04/13 10:05:07;;;;;;;8.18;5.65;;;13.90;99.90;;;;;;6219680;23;20034;-89
2022/04/13 10:07:34;;;;;;;6.68;5.60;;;14.10;99.90;;;;;;6220460;23;20065;-92
2022/04/13 10:10:00;;;;;;;6.72;6.00;;;14.20;99.90;;;;;;6220577;23;20065;-91
2022/04/13 10:12:26;;;;;;;9.38;5.80;;;14.20;99.90;;;;;;6220054;23;20036;-90
2022/04/13 10:14:52;;;;;;;7.25;5.82;;;14.30;99.90;;;;;;6219152;23;20020;-91
2022/04/13 10:17:20;;;;;;;8.40;5.30;;;14.40;99.90;;;;;;6219277;23;20012;-91
2022/04/13 10:19:55;;;;;;;6.28;4.60;;;14.60;99.90;;;;;;6222279;23;20079;-92
2022/04/13 10:22:20;;;;;;;5.25;4.72;;;14.80;99.90;;;;;;6220246;23;20019;-90
2022/04/13 10:24:46;;;;;;;7.75;5.38;;;15.00;99.90;;;;;;6219837;23;20324;-91
2022/04/13 10:27:20;;;;;;;9.30;6.00;;;15.10;99.90;;;;;;6219798;23;20030;-90
2022/04/13 10:29:49;;;;;;;8.52;5.50;;;15.10;99.90;;;;;;6220617;23;20498;-90
2022/04/13 10:32:25;;;;;;;5.80;4.80;;;15.00;99.90;;;;;;6221198;23;20095;-90
2022/04/13 10:34:53;;;;;;;5.57;4.75;;;15.10;99.90;;;;;;6220281;23;20012;-89
2022/04/13 10:37:20;;;;;;;5.70;4.85;;;15.00;99.90;;;;;;6219884;23;20439;-92
2022/04/13 10:39:52;;;;;;;5.40;4.03;;;15.00;99.90;;;;;;6221556;23;20057;-90
2022/04/13 10:42:20;;;;;;;5.13;4.63;;;15.00;99.90;;;;;;6221602;23;20007;-91
2022/04/13 10:45:05;;;;;;;5.80;5.05;;;15.00;99.90;;;;;;6222260;23;20043;-91
2022/04/13 10:47:55;;;;;;;5.93;4.70;;;15.00;99.90;;;;;;6222732;23;20011;-90
2022/04/13 10:50:40;;;;;;;5.32;3.22;;;15.00;99.90;;;;;;6221389;23;20004;-90
2022/04/13 10:53:20;;;;;;;4.30;3.28;;;15.00;99.90;;;;;;6220390;23;20004;-90
2022/04/13 10:55:57;;;;;;;4.60;3.65;;;15.10;99.90;;;;;;6220694;23;20004;-90
2022/04/13 10:58:56;;;;;;;4.35;3.63;;;15.20;99.90;;;;;;6220946;23;20000;-89
2022/04/13 11:01:25;;;;;;;4.13;3.72;;;15.20;99.90;;;;;;6220080;23;20008;-91
2022/04/13 11:03:53;;;;;;;5.22;4.70;;;15.20;99.20;;;;;;6220450;23;20078;-90
2022/04/13 11:06:21;;;;;;;7.00;4.65;;;15.10;99.30;;;;;;6221270;23;20030;-89
2022/04/13 11:08:51;;;;;;;5.88;5.03;;;15.10;99.00;;;;;;6221911;23;20026;-90
2022/04/13 11:11:27;;;;;;;5.38;4.75;;;15.20;99.20;;;;;;6223755;23;19996;-89
2022/04/13 11:13:55;;;;;;;8.00;5.00;;;15.50;99.50;;;;;;6221270;23;20358;-90
2022/04/13 11:16:23;;;;;;;3.95;3.40;;;15.60;99.10;;;;;;6222680;23;20020;-89
2022/04/13 11:19:01;;;;;;;3.50;2.97;;;15.50;98.20;;;;;;6220349;23;20015;-91
2022/04/13 11:21:29;;;;;;;4.22;2.97;;;15.30;97.30;;;;;;6220302;23;20087;-91
2022/04/13 11:23:55;;;;;;;4.22;2.85;;;15.10;97.20;;;;;;6220259;23;20012;-90
2022/04/13 11:26:44;;;;;;;3.92;3.53;;;15.00;97.50;;;;;;6220446;23;20054;-90
2022/04/13 11:29:10;;;;;;;4.78;3.33;;;15.10;98.20;;;;;;6226051;23;20012;-90
2022/04/13 11:32:00;;;;;;;4.25;3.85;;;15.30;98.20;;;;;;6220994;23;20059;-91
2022/04/13 11:34:30;;;;;;;4.47;3.83;;;15.60;98.00;;;;;;6222025;23;20008;-91
2022/04/13 11:37:02;;;;;;;6.07;3.45;;;15.90;97.20;;;;;;6220645;23;20027;-93
2022/04/13 11:40:06;;;;;;;4.40;4.00;;;16.10;96.50;;;;;;6219979;23;20036;-94
2022/04/13 11:42:34;;;;;;;3.85;3.33;;;16.10;95.80;;;;;;6197090;23;20028;-92
2022/04/13 11:45:12;;;;;;;2.72;2.40;;;16.20;95.40;;;;;;6219768;23;20058;-92
2022/04/13 11:47:43;;;;;;;3.13;2.50;;;16.20;94.70;;;;;;6219598;23;20012;-92
2022/04/13 11:50:15;;;;;;;4.07;2.95;;;16.30;94.40;;;;;;6218901;23;20087;-92
2022/04/13 11:52:41;;;;;;;6.95;3.03;;;16.30;93.60;;;;;;6246031;23;20004;-93
2022/04/13 11:55:46;;;;;;;4.05;3.50;;;16.30;93.20;;;;;;6220293;23;20008;-91
2022/04/13 11:58:13;;;;;;;6.35;4.22;;;16.40;93.40;;;;;;6245245;23;20004;-90
2022/04/13 12:00:57;;;;;;;5.13;3.05;;;16.80;93.50;;;;;;6220694;23;20428;-90
2022/04/13 12:03:26;;;;;;;3.95;2.72;;;17.00;93.00;;;;;;6219752;23;20012;-92
2022/04/13 12:06:19;;;;;;;4.75;2.97;;;17.00;92.60;;;;;;6219761;23;20011;-91
2022/04/13 12:08:47;;;;;;;4.22;2.78;;;17.00;92.50;;;;;;6227728;23;20020;-91
2022/04/13 12:11:16;;;;;;;2.80;2.47;;;16.90;92.30;;;;;;6221943;23;20004;-90
2022/04/13 12:13:48;;;;;;;4.55;2.55;;;17.00;92.50;;;;;;6231737;23;20008;-91
2022/04/13 12:16:20;;;;;;;4.63;2.85;;;17.10;92.00;;;;;;6220515;23;20008;-91
2022/04/13 12:18:46;;;;;;;4.15;3.30;;;17.60;91.60;;;;;;6220074;23;20094;-90
2022/04/13 12:21:16;;;;;;;3.83;2.90;;;17.80;90.20;;;;;;6219739;23;20008;-92
2022/04/13 12:23:43;;;;;;;4.18;3.13;;;17.90;89.70;;;;;;6219324;23;20008;-90
2022/04/13 12:26:09;;;;;;;3.95;3.28;;;17.80;88.40;;;;;;6219127;23;20009;-91
2022/04/13 12:28:38;;;;;;;3.80;3.03;;;17.60;88.30;;;;;;6221727;23;20442;-91
2022/04/13 12:31:13;;;;;;;4.43;3.03;;;17.40;89.00;;;;;;6221576;23;20087;-91
2022/04/13 12:33:40;;;;;;;3.70;2.95;;;17.10;89.20;;;;;;6222275;23;20004;-91
2022/04/13 12:36:11;;;;;;;5.95;3.53;;;16.80;90.00;;;;;;6223551;23;20054;-92
2022/04/13 12:38:41;;;;;;;5.97;3.53;;;16.60;90.30;;;;;;6221954;23;20062;-91
2022/04/13 12:41:14;;;;;;;6.10;3.42;;;16.30;90.60;;;;;;6223400;23;20016;-91
2022/04/13 12:43:57;;;;;;;6.07;3.35;;;16.10;91.00;;;;;;6223781;23;20000;-91
2022/04/13 12:46:24;;;;;;;5.40;3.47;;;15.90;91.30;;;;;;6224117;23;20126;-91
2022/04/13 12:48:55;;;;;;;3.50;3.20;;;15.70;91.70;;;;;;6226129;23;20340;-90